Time;durP1;ratioP1;P1;durP2;ratioP2;P2;SDS_P1;SDS_P2;PMS_P1;PMS_P2;Temp;Humidity;BMP_temperature;BMP_pressure;BME280_temperature;BME280_humidity;BME280_pressure;Samples;Min_cycle;Max_cycle;Signal;HPM_P1;HPM_P2
2023/10/31 00:00:40;;;;;;;0.77;0.40;;;12.80;99.90;;;;;;5100319;28;20028;-84
2023/10/31 00:03:05;;;;;;;1.00;0.43;;;12.80;99.90;;;;;;5100331;28;20032;-82
2023/10/31 00:05:31;;;;;;;0.95;0.38;;;12.80;99.90;;;;;;5098559;28;20028;-82
2023/10/31 00:07:57;;;;;;;0.40;0.40;;;12.80;99.90;;;;;;5099242;28;20024;-82
2023/10/31 00:10:22;;;;;;;0.40;0.20;;;12.70;99.90;;;;;;5099027;28;20024;-83
2023/10/31 00:12:48;;;;;;;0.30;0.30;;;12.70;99.90;;;;;;5099107;28;20051;-84
2023/10/31 00:15:14;;;;;;;1.45;0.30;;;12.80;99.90;;;;;;5098820;28;20031;-82
2023/10/31 00:17:39;;;;;;;0.70;0.30;;;12.70;99.90;;;;;;5097337;28;20063;-83
2023/10/31 00:20:06;;;;;;;1.70;0.32;;;12.70;99.90;;;;;;5096907;28;20107;-83
2023/10/31 00:22:31;;;;;;;1.10;0.30;;;12.70;99.90;;;;;;5095420;28;20127;-81
2023/10/31 00:24:57;;;;;;;0.30;0.20;;;12.70;99.90;;;;;;5095859;28;20059;-81
2023/10/31 00:27:23;;;;;;;0.55;0.30;;;12.70;99.90;;;;;;5095228;28;20035;-81
2023/10/31 00:29:48;;;;;;;1.80;0.30;;;12.70;99.90;;;;;;5095811;28;20020;-81
2023/10/31 00:32:14;;;;;;;1.30;0.20;;;12.70;99.90;;;;;;5095081;28;20020;-81
2023/10/31 00:34:40;;;;;;;2.65;0.63;;;12.70;99.90;;;;;;5095823;28;20055;-81
2023/10/31 00:37:05;;;;;;;2.38;0.50;;;12.60;99.90;;;;;;5096098;28;20145;-81
2023/10/31 00:39:31;;;;;;;0.73;0.30;;;12.60;99.90;;;;;;5094914;28;20028;-81
2023/10/31 00:41:56;;;;;;;0.38;0.20;;;12.60;99.90;;;;;;5096437;28;20020;-81
2023/10/31 00:44:22;;;;;;;3.40;0.25;;;12.50;99.90;;;;;;5094886;28;20457;-81
2023/10/31 00:46:47;;;;;;;2.15;0.20;;;12.60;99.90;;;;;;5096059;28;20024;-81
2023/10/31 00:49:13;;;;;;;0.38;0.20;;;12.50;99.90;;;;;;5095908;28;20024;-81
2023/10/31 00:51:39;;;;;;;1.10;0.40;;;12.50;99.90;;;;;;5095369;28;20035;-81
2023/10/31 00:54:04;;;;;;;1.00;0.20;;;12.50;99.90;;;;;;5095661;28;20025;-81
2023/10/31 00:56:30;;;;;;;2.70;0.30;;;12.50;99.90;;;;;;5095794;28;20028;-81
2023/10/31 00:58:55;;;;;;;0.20;0.20;;;12.50;99.90;;;;;;5095009;28;20392;-81
2023/10/31 01:01:21;;;;;;;1.55;0.10;;;12.40;99.90;;;;;;5094544;28;20028;-81
2023/10/31 01:03:46;;;;;;;2.38;0.10;;;12.40;99.90;;;;;;5095080;28;20035;-81
2023/10/31 01:06:12;;;;;;;0.22;0.10;;;12.40;99.90;;;;;;5094528;28;20426;-81
2023/10/31 01:08:38;;;;;;;0.75;0.10;;;12.40;99.90;;;;;;5094629;28;20035;-81
2023/10/31 01:11:03;;;;;;;0.40;0.15;;;12.40;99.90;;;;;;5094962;28;20024;-82
2023/10/31 01:13:30;;;;;;;2.17;0.20;;;12.40;99.90;;;;;;5094683;28;20522;-81
2023/10/31 01:15:55;;;;;;;3.08;0.30;;;12.40;99.90;;;;;;5095135;28;20036;-81
2023/10/31 01:18:21;;;;;;;0.38;0.20;;;12.40;99.90;;;;;;5095138;28;20036;-81
2023/10/31 01:20:46;;;;;;;0.70;0.10;;;12.40;99.90;;;;;;5094953;28;20106;-83
2023/10/31 01:23:12;;;;;;;1.67;0.85;;;12.40;99.90;;;;;;5094517;28;20031;-80
2023/10/31 01:25:38;;;;;;;0.55;0.20;;;12.50;99.90;;;;;;5095657;28;20092;-81
2023/10/31 01:28:03;;;;;;;1.85;0.20;;;12.40;99.90;;;;;;5094819;28;20143;-81
2023/10/31 01:30:29;;;;;;;1.10;0.30;;;12.40;99.90;;;;;;5093231;28;20035;-83
2023/10/31 01:32:54;;;;;;;0.60;0.20;;;12.40;99.90;;;;;;5094585;28;20392;-81
2023/10/31 01:35:20;;;;;;;0.63;0.20;;;12.40;99.90;;;;;;5094049;28;20016;-80
2023/10/31 01:37:46;;;;;;;2.25;0.15;;;12.40;99.90;;;;;;5095403;28;20048;-79
2023/10/31 01:40:14;;;;;;;1.45;0.30;;;12.30;99.90;;;;;;5094512;28;20020;-80
2023/10/31 01:42:40;;;;;;;0.60;0.13;;;12.40;99.90;;;;;;5094242;28;20115;-80
2023/10/31 01:45:06;;;;;;;1.80;0.20;;;12.30;99.90;;;;;;5095269;28;20059;-81
2023/10/31 01:47:32;;;;;;;1.30;0.20;;;12.30;99.90;;;;;;5093896;28;20617;-81
2023/10/31 01:49:59;;;;;;;1.95;0.15;;;12.20;99.90;;;;;;5093948;28;20051;-81
2023/10/31 01:52:25;;;;;;;0.28;0.10;;;12.20;99.90;;;;;;5094720;28;20024;-81
2023/10/31 01:54:51;;;;;;;1.10;0.20;;;12.20;99.90;;;;;;5094150;28;20027;-81
2023/10/31 01:57:19;;;;;;;0.13;0.10;;;12.20;99.90;;;;;;5094662;28;20431;-81
2023/10/31 01:59:44;;;;;;;0.30;0.10;;;12.20;99.90;;;;;;5093850;28;20016;-81
2023/10/31 02:02:10;;;;;;;0.88;0.30;;;12.20;99.90;;;;;;5094055;28;20030;-81
2023/10/31 02:04:36;;;;;;;1.42;0.20;;;12.10;99.90;;;;;;5094553;28;20361;-82
2023/10/31 02:07:01;;;;;;;1.05;0.20;;;12.10;99.90;;;;;;5093823;28;20035;-82
2023/10/31 02:09:29;;;;;;;1.67;1.00;;;12.10;99.90;;;;;;5093161;28;20024;-81
2023/10/31 02:11:54;;;;;;;0.55;0.20;;;12.00;99.90;;;;;;5093995;28;20024;-81
2023/10/31 02:14:23;;;;;;;0.30;0.20;;;12.00;99.90;;;;;;5093190;28;20111;-82
2023/10/31 02:16:49;;;;;;;1.42;0.17;;;12.00;99.90;;;;;;5095127;28;20102;-82
2023/10/31 02:19:18;;;;;;;1.30;0.13;;;12.00;99.90;;;;;;5094942;28;20170;-82
2023/10/31 02:21:44;;;;;;;0.68;0.22;;;12.00;99.90;;;;;;5093766;28;20461;-81
2023/10/31 02:24:09;;;;;;;2.15;0.20;;;12.00;99.90;;;;;;5093479;28;20028;-82
2023/10/31 02:26:35;;;;;;;0.20;0.20;;;12.00;99.90;;;;;;5094052;28;20027;-81
2023/10/31 02:29:02;;;;;;;1.77;0.20;;;12.00;99.90;;;;;;5093463;28;20028;-82
2023/10/31 02:31:27;;;;;;;0.47;0.10;;;12.00;99.90;;;;;;5092681;28;20028;-82
2023/10/31 02:33:53;;;;;;;0.73;0.20;;;12.00;99.90;;;;;;5093539;28;20081;-81
2023/10/31 02:36:19;;;;;;;2.45;0.28;;;12.00;99.90;;;;;;5092592;28;20048;-80
2023/10/31 02:38:45;;;;;;;0.40;0.10;;;12.00;99.90;;;;;;5094383;28;20105;-81
2023/10/31 02:41:11;;;;;;;0.93;0.20;;;12.00;99.90;;;;;;5093585;28;20024;-81
2023/10/31 02:43:38;;;;;;;1.15;0.20;;;12.10;99.90;;;;;;5093039;28;20465;-81
2023/10/31 02:46:03;;;;;;;1.27;0.10;;;12.10;99.90;;;;;;5093121;28;20032;-81
2023/10/31 02:48:31;;;;;;;0.90;0.30;;;12.10;99.90;;;;;;5093661;28;20036;-81
2023/10/31 02:50:57;;;;;;;0.55;0.10;;;12.10;99.90;;;;;;5092972;28;20027;-81
2023/10/31 02:53:23;;;;;;;0.82;0.20;;;12.10;99.90;;;;;;5093596;28;20094;-81
2023/10/31 02:55:49;;;;;;;1.77;0.25;;;12.10;99.90;;;;;;5094096;28;20037;-82
2023/10/31 02:58:17;;;;;;;0.73;0.10;;;12.10;99.90;;;;;;5093080;28;20028;-82
2023/10/31 03:00:43;;;;;;;0.40;0.20;;;12.00;99.90;;;;;;5092327;28;20032;-81
2023/10/31 03:03:08;;;;;;;0.57;0.20;;;12.00;99.90;;;;;;5093440;28;20548;-81
2023/10/31 03:05:34;;;;;;;0.50;0.20;;;12.00;99.90;;;;;;5092636;28;20063;-81
2023/10/31 03:08:00;;;;;;;0.43;0.10;;;12.00;99.90;;;;;;5094219;28;20020;-81
2023/10/31 03:10:26;;;;;;;0.47;0.05;;;12.00;99.90;;;;;;5093305;28;20538;-81
2023/10/31 03:12:52;;;;;;;0.93;0.20;;;12.00;99.90;;;;;;5093231;28;20044;-81
2023/10/31 03:15:17;;;;;;;0.85;0.20;;;12.00;99.90;;;;;;5093884;28;20063;-81
2023/10/31 03:17:43;;;;;;;1.30;0.20;;;12.00;99.90;;;;;;5093347;28;20374;-81
2023/10/31 03:20:09;;;;;;;2.40;0.30;;;12.00;99.90;;;;;;5093953;28;20020;-81
2023/10/31 03:22:35;;;;;;;2.05;0.28;;;12.00;99.90;;;;;;5092151;28;20055;-81
2023/10/31 03:25:01;;;;;;;3.17;0.20;;;12.00;99.90;;;;;;5093945;28;20033;-81
2023/10/31 03:27:26;;;;;;;1.08;0.20;;;12.00;99.90;;;;;;5092630;28;20465;-81
2023/10/31 03:29:52;;;;;;;0.45;0.20;;;12.00;99.90;;;;;;5093129;28;20031;-81
2023/10/31 03:32:17;;;;;;;1.45;0.10;;;12.00;99.90;;;;;;5092434;28;20031;-81
2023/10/31 03:34:43;;;;;;;2.78;0.20;;;12.00;99.90;;;;;;5092270;28;20020;-80
2023/10/31 03:37:09;;;;;;;1.20;0.10;;;12.00;99.90;;;;;;5092469;28;20131;-80
2023/10/31 03:39:34;;;;;;;0.30;0.20;;;12.00;99.90;;;;;;5092212;28;20020;-80
2023/10/31 03:42:00;;;;;;;0.77;0.20;;;12.00;99.90;;;;;;5092866;28;20024;-80
2023/10/31 03:44:25;;;;;;;0.45;0.20;;;12.00;99.90;;;;;;5092205;28;20024;-80
2023/10/31 03:46:51;;;;;;;2.58;0.28;;;12.00;99.90;;;;;;5093946;28;20033;-80
2023/10/31 03:49:17;;;;;;;1.67;0.50;;;12.10;99.90;;;;;;5092734;28;20067;-81
2023/10/31 03:51:42;;;;;;;4.80;0.50;;;12.10;99.90;;;;;;5093323;28;20059;-80
2023/10/31 03:54:08;;;;;;;1.63;0.40;;;12.10;99.90;;;;;;5096564;28;20115;-83
2023/10/31 03:56:43;;;;;;;2.60;0.40;;;12.10;99.90;;;;;;5097122;28;20024;-82
2023/10/31 03:59:09;;;;;;;1.92;0.45;;;12.10;99.90;;;;;;5097725;28;20035;-83
2023/10/31 04:01:35;;;;;;;1.77;0.47;;;12.10;99.90;;;;;;5095604;28;20123;-83
2023/10/31 04:04:01;;;;;;;3.15;0.30;;;12.10;99.90;;;;;;5096521;28;20117;-83
2023/10/31 04:06:26;;;;;;;1.70;0.50;;;12.10;99.90;;;;;;5096929;28;20070;-81
2023/10/31 04:08:52;;;;;;;1.08;0.25;;;12.10;99.90;;;;;;5096275;28;20054;-81
2023/10/31 04:11:18;;;;;;;4.45;0.28;;;12.10;99.90;;;;;;5097465;28;20469;-82
2023/10/31 04:13:43;;;;;;;0.57;0.28;;;12.10;99.90;;;;;;5096742;28;20108;-81
2023/10/31 04:16:09;;;;;;;3.33;0.47;;;12.20;99.90;;;;;;5096024;28;20522;-81
2023/10/31 04:18:36;;;;;;;1.40;0.40;;;12.20;99.90;;;;;;5095356;28;20123;-82
2023/10/31 04:21:02;;;;;;;1.50;0.30;;;12.20;99.90;;;;;;5096117;28;20020;-82
2023/10/31 04:23:27;;;;;;;2.08;0.85;;;12.10;99.90;;;;;;5095530;28;20089;-81
2023/10/31 04:25:53;;;;;;;2.60;0.30;;;12.10;99.90;;;;;;5097001;28;20031;-82
2023/10/31 04:28:19;;;;;;;0.90;0.38;;;12.10;99.90;;;;;;5095743;28;20032;-81
2023/10/31 04:30:44;;;;;;;3.40;0.47;;;12.10;99.90;;;;;;5095271;28;20025;-81
2023/10/31 04:33:10;;;;;;;3.40;0.50;;;12.10;99.90;;;;;;5095825;28;20024;-81
2023/10/31 04:35:36;;;;;;;1.65;0.40;;;12.10;99.90;;;;;;5095179;28;20028;-80
2023/10/31 04:38:01;;;;;;;3.20;0.40;;;12.20;99.90;;;;;;5095200;28;20051;-81
2023/10/31 04:40:27;;;;;;;1.30;0.40;;;12.10;99.90;;;;;;5095039;28;20028;-81
2023/10/31 04:42:52;;;;;;;2.97;0.30;;;12.10;99.90;;;;;;5096541;28;20039;-81
2023/10/31 04:45:18;;;;;;;2.03;0.20;;;12.20;99.90;;;;;;5095308;28;20031;-81
2023/10/31 04:47:43;;;;;;;0.90;0.22;;;12.10;99.90;;;;;;5095134;28;20280;-81
2023/10/31 04:50:09;;;;;;;5.38;0.30;;;12.20;99.90;;;;;;5095713;28;20028;-81
2023/10/31 04:52:35;;;;;;;2.30;0.40;;;12.20;99.90;;;;;;5094728;28;20028;-81
2023/10/31 04:55:00;;;;;;;1.55;0.30;;;12.10;99.90;;;;;;5095472;28;20028;-81
2023/10/31 04:57:26;;;;;;;2.08;0.38;;;12.10;99.90;;;;;;5095033;28;20054;-81
2023/10/31 04:59:54;;;;;;;0.80;0.20;;;12.10;99.90;;;;;;5096177;28;20056;-81
2023/10/31 05:02:22;;;;;;;2.75;0.30;;;12.20;99.90;;;;;;5095278;28;20077;-81
2023/10/31 05:04:50;;;;;;;0.55;0.22;;;12.10;99.90;;;;;;5093841;28;20055;-81
2023/10/31 05:07:18;;;;;;;1.00;0.20;;;12.10;99.90;;;;;;5095058;28;20070;-81
2023/10/31 05:09:44;;;;;;;0.25;0.10;;;12.10;99.90;;;;;;5095478;28;20120;-81
2023/10/31 05:12:10;;;;;;;1.40;0.20;;;12.10;99.90;;;;;;5095132;28;20056;-81
2023/10/31 05:14:35;;;;;;;2.35;0.40;;;12.10;99.90;;;;;;5094593;28;20024;-81
2023/10/31 05:17:02;;;;;;;1.25;0.30;;;12.00;99.90;;;;;;5095131;28;20024;-82
2023/10/31 05:19:27;;;;;;;2.25;0.40;;;12.00;99.90;;;;;;5094692;28;20093;-81
2023/10/31 05:21:53;;;;;;;2.10;0.30;;;11.90;99.90;;;;;;5095962;28;20445;-82
2023/10/31 05:24:19;;;;;;;4.80;0.55;;;11.90;99.90;;;;;;5095724;28;20055;-82
2023/10/31 05:26:44;;;;;;;2.95;0.40;;;11.80;99.90;;;;;;5094260;28;20032;-82
2023/10/31 05:29:11;;;;;;;1.63;0.47;;;11.80;99.90;;;;;;5094872;28;20453;-82
2023/10/31 05:31:36;;;;;;;0.98;0.45;;;11.80;99.90;;;;;;5094337;28;20427;-82
2023/10/31 05:34:05;;;;;;;4.32;0.60;;;11.80;99.90;;;;;;5095580;28;20028;-83
2023/10/31 05:36:31;;;;;;;3.00;0.60;;;11.80;99.90;;;;;;5093797;28;20051;-82
2023/10/31 05:38:56;;;;;;;4.38;1.00;;;11.80;99.90;;;;;;5094579;28;20032;-83
2023/10/31 05:41:22;;;;;;;3.53;1.08;;;11.80;99.90;;;;;;5095771;28;20024;-83
2023/10/31 05:43:48;;;;;;;0.82;0.32;;;11.80;99.90;;;;;;5093765;28;20028;-82
2023/10/31 05:46:14;;;;;;;2.75;0.57;;;11.80;99.90;;;;;;5094229;28;20111;-82
2023/10/31 05:48:41;;;;;;;1.77;0.55;;;11.80;99.90;;;;;;5093791;28;20488;-82
2023/10/31 05:51:13;;;;;;;2.83;0.52;;;11.80;99.90;;;;;;5094225;28;20030;-82
2023/10/31 05:53:40;;;;;;;2.15;0.60;;;11.80;99.90;;;;;;5093644;28;20028;-82
2023/10/31 05:56:07;;;;;;;2.10;0.50;;;11.80;99.90;;;;;;5094218;28;20031;-82
2023/10/31 05:58:33;;;;;;;4.78;0.88;;;11.80;99.90;;;;;;5093478;28;20085;-82
2023/10/31 06:00:58;;;;;;;4.70;0.70;;;11.80;99.90;;;;;;5094479;28;20024;-82
2023/10/31 06:03:24;;;;;;;2.97;0.40;;;11.80;99.90;;;;;;5095116;28;20067;-82
2023/10/31 06:05:49;;;;;;;4.75;0.40;;;11.80;99.90;;;;;;5093372;28;20032;-82
2023/10/31 06:08:15;;;;;;;6.13;0.47;;;11.80;99.90;;;;;;5094962;28;20411;-82
2023/10/31 06:10:40;;;;;;;1.88;0.60;;;11.80;99.90;;;;;;5093127;28;20020;-81
2023/10/31 06:13:06;;;;;;;3.30;0.45;;;11.80;99.90;;;;;;5093565;28;20024;-82
2023/10/31 06:15:32;;;;;;;1.67;0.50;;;11.80;99.90;;;;;;5092847;28;20157;-82
2023/10/31 06:17:57;;;;;;;3.15;0.40;;;11.80;99.90;;;;;;5094655;28;20035;-82
2023/10/31 06:20:23;;;;;;;0.35;0.20;;;11.80;99.90;;;;;;5094633;28;20028;-82
2023/10/31 06:22:49;;;;;;;0.75;0.20;;;11.80;99.90;;;;;;5093191;28;20071;-82
2023/10/31 06:25:14;;;;;;;0.60;0.17;;;11.80;99.90;;;;;;5094715;28;20472;-82
2023/10/31 06:27:40;;;;;;;1.17;0.30;;;11.80;99.90;;;;;;5093197;28;20051;-82
2023/10/31 06:30:06;;;;;;;0.95;0.40;;;11.80;99.90;;;;;;5093489;28;20023;-81
2023/10/31 06:32:32;;;;;;;3.35;0.40;;;11.80;99.90;;;;;;5092455;28;20064;-80
2023/10/31 06:34:57;;;;;;;1.73;0.30;;;11.80;99.90;;;;;;5093637;28;20034;-82
2023/10/31 06:37:23;;;;;;;1.30;0.40;;;11.80;99.90;;;;;;5093102;28;20090;-81
2023/10/31 06:39:48;;;;;;;4.13;0.35;;;11.80;99.90;;;;;;5093915;28;20028;-81
2023/10/31 06:42:14;;;;;;;1.48;0.20;;;11.80;99.90;;;;;;5094449;28;20070;-82
2023/10/31 06:44:40;;;;;;;1.58;0.20;;;11.80;99.90;;;;;;5093935;28;20101;-81
2023/10/31 06:47:05;;;;;;;1.65;0.70;;;11.80;99.90;;;;;;5093547;28;20039;-81
2023/10/31 06:49:31;;;;;;;1.20;0.30;;;11.80;99.90;;;;;;5093115;28;20143;-82
2023/10/31 06:51:57;;;;;;;1.52;0.60;;;11.80;99.90;;;;;;5093355;28;20107;-81
2023/10/31 06:54:22;;;;;;;2.38;0.25;;;11.80;99.90;;;;;;5094259;28;20130;-81
2023/10/31 06:56:48;;;;;;;2.75;0.25;;;11.80;99.90;;;;;;5092560;28;20028;-81
2023/10/31 06:59:13;;;;;;;1.40;0.50;;;11.70;99.90;;;;;;5093428;28;20032;-81
2023/10/31 07:01:39;;;;;;;0.55;0.30;;;11.80;99.90;;;;;;5092690;28;20476;-81
2023/10/31 07:04:05;;;;;;;1.85;0.30;;;11.80;99.90;;;;;;5094086;28;20032;-81
2023/10/31 07:06:30;;;;;;;2.05;0.20;;;11.80;99.90;;;;;;5094124;28;20100;-81
2023/10/31 07:08:57;;;;;;;1.48;0.30;;;11.80;99.90;;;;;;5093794;28;20389;-81
2023/10/31 07:11:23;;;;;;;0.60;0.40;;;11.90;99.90;;;;;;5094033;28;20031;-81
2023/10/31 07:13:48;;;;;;;0.60;0.30;;;11.80;99.90;;;;;;5093363;28;20020;-80
2023/10/31 07:16:14;;;;;;;2.65;0.40;;;11.90;99.90;;;;;;5092524;28;20024;-81
2023/10/31 07:18:39;;;;;;;2.05;0.52;;;11.90;99.90;;;;;;5092240;28;20040;-80
2023/10/31 07:21:05;;;;;;;0.95;0.30;;;11.90;99.90;;;;;;5092697;28;20028;-80
2023/10/31 07:23:31;;;;;;;2.05;0.30;;;12.00;99.90;;;;;;5092633;28;20025;-80
2023/10/31 07:25:57;;;;;;;2.22;0.45;;;11.90;99.90;;;;;;5093296;28;20028;-81
2023/10/31 07:28:22;;;;;;;2.67;0.50;;;11.90;99.90;;;;;;5096159;28;20081;-81
2023/10/31 07:30:49;;;;;;;2.88;0.50;;;11.90;99.90;;;;;;5096436;28;20058;-81
2023/10/31 07:33:14;;;;;;;1.55;0.30;;;11.90;99.90;;;;;;5097835;28;20031;-81
2023/10/31 07:35:40;;;;;;;1.75;0.88;;;11.90;99.90;;;;;;5097212;28;20023;-81
2023/10/31 07:38:05;;;;;;;5.70;0.55;;;12.00;99.90;;;;;;5096402;28;20048;-81
2023/10/31 07:40:31;;;;;;;2.97;0.50;;;12.00;99.90;;;;;;5097910;28;20024;-82
2023/10/31 07:42:57;;;;;;;1.27;0.30;;;12.00;99.90;;;;;;5097177;28;20032;-82
2023/10/31 07:45:22;;;;;;;3.92;0.63;;;12.00;99.90;;;;;;5096611;28;20038;-81
2023/10/31 07:47:48;;;;;;;1.85;0.55;;;12.00;99.90;;;;;;5097219;28;20461;-81
2023/10/31 07:50:13;;;;;;;4.25;0.88;;;12.10;99.90;;;;;;5097460;28;20039;-82
2023/10/31 07:52:39;;;;;;;3.65;0.65;;;12.20;99.90;;;;;;5097493;28;20080;-81
2023/10/31 07:55:05;;;;;;;2.80;0.40;;;12.20;99.90;;;;;;5097399;28;20035;-81
2023/10/31 07:57:31;;;;;;;4.70;0.70;;;12.20;99.90;;;;;;5096455;28;20042;-81
2023/10/31 07:59:56;;;;;;;4.32;0.80;;;12.20;99.90;;;;;;5095922;28;20028;-82
2023/10/31 08:02:22;;;;;;;3.28;0.90;;;12.20;99.90;;;;;;5096207;28;20067;-82
2023/10/31 08:04:47;;;;;;;4.50;0.80;;;12.20;99.90;;;;;;5095905;28;20077;-81
2023/10/31 08:07:13;;;;;;;2.10;0.68;;;12.20;99.90;;;;;;5096244;28;20020;-81
2023/10/31 08:09:38;;;;;;;5.18;0.80;;;12.20;99.90;;;;;;5095751;28;20177;-81
2023/10/31 08:12:04;;;;;;;4.85;1.05;;;12.20;99.90;;;;;;5096022;28;20024;-80
2023/10/31 08:14:30;;;;;;;8.43;1.15;;;12.20;99.90;;;;;;5097086;28;20484;-80
2023/10/31 08:16:56;;;;;;;2.53;0.40;;;12.20;99.90;;;;;;5096577;28;20038;-80
2023/10/31 08:19:21;;;;;;;2.40;0.73;;;12.30;99.90;;;;;;5095741;28;20067;-81
2023/10/31 08:21:47;;;;;;;1.27;0.32;;;12.30;99.90;;;;;;5095387;28;20030;-81
2023/10/31 08:24:13;;;;;;;1.70;0.40;;;12.40;99.90;;;;;;5095385;28;20024;-81
2023/10/31 08:26:39;;;;;;;3.30;0.43;;;12.40;99.90;;;;;;5094630;28;20047;-80
2023/10/31 08:29:04;;;;;;;3.55;0.60;;;12.40;99.90;;;;;;5095280;28;20453;-80
2023/10/31 08:31:30;;;;;;;0.90;0.35;;;12.50;99.90;;;;;;5096625;28;20099;-81
2023/10/31 08:33:56;;;;;;;1.77;0.50;;;12.50;99.90;;;;;;5096177;28;20050;-80
2023/10/31 08:36:21;;;;;;;1.60;0.45;;;12.60;99.90;;;;;;5096724;28;20048;-81
2023/10/31 08:38:48;;;;;;;2.83;0.40;;;12.60;99.90;;;;;;5094899;28;20408;-82
2023/10/31 08:41:19;;;;;;;1.55;0.30;;;12.60;99.90;;;;;;5092440;28;20059;-82
2023/10/31 08:43:45;;;;;;;2.53;1.15;;;12.60;99.90;;;;;;5103669;28;20023;-80
2023/10/31 08:46:11;;;;;;;4.70;1.20;;;12.60;99.90;;;;;;5113257;28;20032;-83
2023/10/31 08:48:38;;;;;;;2.88;0.73;;;12.60;99.90;;;;;;5105479;28;20035;-82
2023/10/31 08:51:04;;;;;;;3.15;0.40;;;12.60;99.90;;;;;;5101291;28;20052;-83
2023/10/31 08:53:29;;;;;;;3.40;0.80;;;12.60;99.90;;;;;;5111659;28;20523;-85
2023/10/31 08:55:56;;;;;;;1.35;0.50;;;12.60;99.90;;;;;;5098915;28;20051;-86
2023/10/31 08:58:21;;;;;;;2.13;0.40;;;12.60;99.90;;;;;;5107080;28;20128;-86
2023/10/31 09:00:47;;;;;;;2.38;0.50;;;12.70;99.90;;;;;;5093995;28;20031;-85
2023/10/31 09:03:13;;;;;;;0.55;0.35;;;12.70;99.90;;;;;;5110701;28;20520;-85
2023/10/31 09:05:40;;;;;;;2.85;0.98;;;12.70;99.90;;;;;;5097684;28;20035;-82
2023/10/31 09:08:05;;;;;;;1.95;0.38;;;12.70;99.90;;;;;;5110320;28;20515;-85
2023/10/31 09:10:32;;;;;;;2.22;0.40;;;12.80;99.90;;;;;;5100966;28;20027;-84
2023/10/31 09:12:58;;;;;;;2.38;0.60;;;12.90;99.90;;;;;;5107245;28;20498;-85
2023/10/31 09:15:24;;;;;;;2.85;0.47;;;12.90;99.90;;;;;;5097888;28;20473;-86
2023/10/31 09:17:49;;;;;;;4.20;0.52;;;12.90;99.90;;;;;;5111882;28;20047;-86
2023/10/31 09:20:15;;;;;;;3.20;0.50;;;12.90;99.90;;;;;;5101740;28;20043;-86
2023/10/31 09:22:40;;;;;;;5.13;0.50;;;12.90;99.90;;;;;;5103385;28;20051;-85
2023/10/31 09:25:06;;;;;;;0.93;0.40;;;12.90;99.90;;;;;;5108428;28;20118;-88
2023/10/31 09:27:32;;;;;;;5.20;0.80;;;13.00;99.90;;;;;;5097622;28;20080;-87
2023/10/31 09:29:58;;;;;;;3.67;0.50;;;13.00;99.90;;;;;;5114188;28;20024;-87
2023/10/31 09:32:23;;;;;;;3.38;0.50;;;13.00;99.90;;;;;;5107281;28;20457;-86
2023/10/31 09:34:49;;;;;;;2.60;0.40;;;13.00;99.90;;;;;;5093364;28;20035;-87
2023/10/31 09:37:14;;;;;;;6.13;0.70;;;13.00;99.90;;;;;;5093792;28;20044;-86
2023/10/31 09:39:40;;;;;;;1.33;0.30;;;13.00;99.90;;;;;;5111445;28;20031;-83
2023/10/31 09:42:07;;;;;;;3.03;0.50;;;13.10;99.90;;;;;;5086919;28;20115;-84
2023/10/31 09:44:33;;;;;;;5.53;0.57;;;13.10;99.90;;;;;;5083044;28;20029;-84
2023/10/31 09:47:00;;;;;;;4.30;0.80;;;13.20;99.90;;;;;;5086758;28;20649;-84
2023/10/31 09:49:26;;;;;;;2.53;0.40;;;13.20;99.90;;;;;;5086334;28;20471;-84
2023/10/31 09:51:52;;;;;;;2.33;0.50;;;13.20;99.90;;;;;;5109870;28;20472;-82
2023/10/31 09:54:18;;;;;;;2.53;0.45;;;13.20;99.90;;;;;;5101129;28;20035;-82
2023/10/31 09:56:43;;;;;;;11.10;1.23;;;13.20;99.90;;;;;;5102374;28;20020;-84
2023/10/31 09:59:09;;;;;;;2.85;0.80;;;13.20;99.90;;;;;;5087654;28;20156;-87
2023/10/31 10:01:35;;;;;;;3.28;0.70;;;13.20;99.90;;;;;;5083872;28;20028;-87
2023/10/31 10:04:01;;;;;;;3.25;0.75;;;13.30;99.90;;;;;;5086347;28;20020;-87
2023/10/31 10:06:27;;;;;;;2.30;0.63;;;13.30;99.90;;;;;;5089878;28;20384;-84
2023/10/31 10:08:52;;;;;;;2.85;0.50;;;13.40;99.90;;;;;;5085448;28;20028;-84
2023/10/31 10:11:18;;;;;;;3.22;0.60;;;13.40;99.90;;;;;;5095786;28;20059;-88
2023/10/31 10:13:44;;;;;;;2.15;0.50;;;13.40;99.90;;;;;;5084586;28;20024;-89
2023/10/31 10:16:10;;;;;;;2.70;0.60;;;13.40;99.90;;;;;;5081902;28;20401;-90
2023/10/31 10:18:40;;;;;;;3.50;0.77;;;13.30;99.90;;;;;;5092749;28;20039;-86
2023/10/31 10:21:07;;;;;;;2.38;0.43;;;13.30;99.90;;;;;;5100591;28;20028;-90
2023/10/31 10:23:33;;;;;;;3.60;0.70;;;13.30;99.90;;;;;;5109965;28;20032;-89
2023/10/31 10:26:00;;;;;;;2.63;0.63;;;13.30;99.90;;;;;;5097657;28;20027;-90
2023/10/31 10:28:26;;;;;;;3.28;0.80;;;13.30;99.90;;;;;;5106152;28;20073;-88
2023/10/31 10:30:53;;;;;;;2.65;0.65;;;13.20;99.90;;;;;;5104604;28;20030;-87
2023/10/31 10:33:19;;;;;;;4.95;0.90;;;13.20;99.90;;;;;;5097761;28;20059;-85
2023/10/31 10:35:45;;;;;;;4.78;1.13;;;13.20;99.90;;;;;;5093166;28;20030;-86
2023/10/31 10:38:16;;;;;;;5.65;1.27;;;13.20;99.90;;;;;;5099403;28;20110;-87
2023/10/31 10:40:47;;;;;;;1.85;0.73;;;13.20;99.90;;;;;;5101845;28;20077;-86
2023/10/31 10:43:26;;;;;;;4.57;0.75;;;13.20;99.90;;;;;;5109244;28;20107;-87
2023/10/31 10:45:57;;;;;;;2.13;0.47;;;13.30;99.90;;;;;;5081020;28;20027;-86
2023/10/31 10:48:26;;;;;;;4.25;0.70;;;13.20;99.90;;;;;;5105224;28;20473;-85
2023/10/31 10:51:24;;;;;;;2.13;0.60;;;13.20;99.90;;;;;;5104768;28;20028;-86
2023/10/31 10:53:55;;;;;;;2.80;0.38;;;13.10;99.90;;;;;;5067609;28;20035;-86
2023/10/31 10:57:00;;;;;;;2.70;0.45;;;13.20;99.90;;;;;;5105373;28;20054;-85
2023/10/31 10:59:41;;;;;;;2.88;0.70;;;13.20;99.90;;;;;;5084502;28;20122;-85
2023/10/31 11:02:07;;;;;;;1.60;0.50;;;13.20;99.90;;;;;;5106447;28;20555;-86
2023/10/31 11:04:35;;;;;;;1.23;0.50;;;13.20;99.90;;;;;;5103111;28;20102;-86
2023/10/31 11:07:02;;;;;;;2.63;0.63;;;13.20;99.90;;;;;;5099058;28;20027;-86
2023/10/31 11:09:29;;;;;;;4.15;0.63;;;13.30;99.90;;;;;;5110503;28;20027;-87
2023/10/31 11:11:55;;;;;;;3.95;0.50;;;13.40;99.90;;;;;;5097491;28;20034;-90
2023/10/31 11:14:22;;;;;;;3.53;0.40;;;13.50;99.90;;;;;;5106276;28;20028;-91
2023/10/31 11:16:59;;;;;;;3.38;0.70;;;13.40;99.90;;;;;;5103540;28;20473;-85
2023/10/31 11:19:27;;;;;;;3.00;0.50;;;13.60;99.90;;;;;;5096231;28;20032;-86
2023/10/31 11:22:05;;;;;;;1.42;0.40;;;13.50;99.90;;;;;;5108404;28;20063;-84
2023/10/31 11:24:36;;;;;;;2.67;0.60;;;13.60;99.90;;;;;;5101615;28;20027;-84
2023/10/31 11:27:04;;;;;;;2.30;0.68;;;13.60;99.90;;;;;;5098756;28;20072;-86
2023/10/31 11:29:31;;;;;;;3.20;0.65;;;13.70;99.90;;;;;;5109159;28;20035;-87
2023/10/31 11:31:57;;;;;;;1.77;0.47;;;13.80;99.90;;;;;;5097380;28;20024;-85
2023/10/31 11:34:26;;;;;;;1.85;0.60;;;13.80;99.90;;;;;;5114134;28;20061;-84
2023/10/31 11:36:52;;;;;;;3.25;0.75;;;13.80;99.90;;;;;;5106979;28;20513;-86
2023/10/31 11:39:28;;;;;;;4.78;1.00;;;13.80;99.90;;;;;;5107947;28;20036;-87
2023/10/31 11:41:55;;;;;;;3.95;1.00;;;13.80;99.90;;;;;;5095744;28;20038;-85
2023/10/31 11:44:27;;;;;;;2.63;1.30;;;13.90;99.90;;;;;;5104770;28;20080;-82
2023/10/31 11:46:53;;;;;;;3.17;1.40;;;14.10;99.90;;;;;;5105270;28;20093;-85
2023/10/31 11:49:48;;;;;;;5.80;1.42;;;14.10;99.90;;;;;;5097574;28;20044;-87
2023/10/31 11:52:16;;;;;;;3.25;1.40;;;14.20;99.90;;;;;;5086085;28;20031;-91
2023/10/31 11:54:42;;;;;;;4.15;1.35;;;14.30;99.90;;;;;;5101074;28;20112;-85
2023/10/31 11:57:08;;;;;;;3.83;1.38;;;14.40;99.90;;;;;;5106839;28;20020;-85
2023/10/31 11:59:39;;;;;;;3.33;1.15;;;14.50;99.90;;;;;;5095373;28;20502;-83
2023/10/31 12:02:15;;;;;;;2.70;1.15;;;14.70;99.90;;;;;;5105920;28;20024;-83
2023/10/31 12:04:40;;;;;;;4.95;0.98;;;14.90;99.90;;;;;;5101915;28;20484;-85
2023/10/31 12:07:06;;;;;;;5.07;0.85;;;15.00;99.90;;;;;;5106005;28;20034;-82
2023/10/31 12:09:32;;;;;;;2.45;1.00;;;14.90;99.90;;;;;;5095327;28;20031;-85
2023/10/31 12:11:57;;;;;;;2.05;0.73;;;14.80;99.90;;;;;;5101597;28;20047;-84
2023/10/31 12:14:23;;;;;;;2.88;1.10;;;14.70;99.90;;;;;;5107007;28;20107;-83
2023/10/31 12:16:48;;;;;;;3.85;0.90;;;14.60;99.90;;;;;;5107118;28;20032;-88
2023/10/31 12:19:14;;;;;;;3.47;1.50;;;14.40;99.90;;;;;;5100772;28;20481;-88
2023/10/31 12:21:48;;;;;;;3.83;1.33;;;14.30;99.90;;;;;;5096730;28;20078;-82
2023/10/31 12:24:15;;;;;;;6.10;1.15;;;14.20;99.90;;;;;;5102450;28;20065;-81
2023/10/31 12:26:41;;;;;;;6.03;1.20;;;14.10;99.90;;;;;;5105716;28;20031;-80
2023/10/31 12:29:11;;;;;;;1.63;0.88;;;14.10;99.90;;;;;;5109775;28;20028;-80
2023/10/31 12:31:54;;;;;;;5.97;1.60;;;14.10;99.90;;;;;;5098832;28;20035;-81
2023/10/31 12:34:21;;;;;;;2.60;1.30;;;14.10;99.90;;;;;;5107741;28;20032;-80
2023/10/31 12:36:49;;;;;;;3.33;0.68;;;14.00;99.90;;;;;;5094165;28;20055;-81
2023/10/31 12:39:16;;;;;;;1.23;0.80;;;13.90;99.90;;;;;;5111793;28;20038;-81
2023/10/31 12:41:43;;;;;;;2.80;0.65;;;13.90;99.90;;;;;;5097918;28;20077;-80
2023/10/31 12:44:10;;;;;;;3.83;0.90;;;13.90;99.90;;;;;;5110263;27;20055;-81